createdAt,value
2023-05-01T00:03:18.035Z,11.70
2023-05-01T00:07:20.926Z,11.80
2023-05-01T00:11:22.742Z,11.80
2023-05-01T00:15:24.347Z,11.90
2023-05-01T00:19:26.030Z,11.70
2023-05-01T00:23:27.852Z,11.50
2023-05-01T00:27:29.483Z,11.10
2023-05-01T00:31:31.301Z,11.20
2023-05-01T00:35:32.950Z,11.10
2023-05-01T00:39:34.553Z,10.90
2023-05-01T00:43:36.253Z,11.30
2023-05-01T00:47:38.718Z,11.40
2023-05-01T00:51:41.146Z,11.30
2023-05-01T00:55:43.360Z,11.40
2023-05-01T00:59:45.444Z,11.30
2023-05-01T01:03:47.530Z,11.30
2023-05-01T01:08:05.153Z,11.10
2023-05-01T01:12:13.968Z,11.00
2023-05-01T01:16:32.827Z,11.20
2023-05-01T01:20:38.767Z,11.20
2023-05-01T01:25:10.344Z,11.40
2023-05-01T01:29:30.503Z,11.50
2023-05-01T01:33:32.434Z,11.60
2023-05-01T01:37:48.441Z,11.10
2023-05-01T01:41:52.495Z,11.10
2023-05-01T01:45:59.471Z,10.80
2023-05-01T01:50:05.019Z,10.70
2023-05-01T01:54:07.512Z,11.00
2023-05-01T01:58:10.811Z,11.30
2023-05-01T02:02:14.207Z,11.30
2023-05-01T02:06:17.546Z,11.40
2023-05-01T02:10:22.263Z,11.40
2023-05-01T02:14:26.540Z,11.00
2023-05-01T02:18:29.701Z,10.60
2023-05-01T02:22:32.194Z,10.60
2023-05-01T02:26:41.396Z,11.10
2023-05-01T02:30:43.091Z,11.50
2023-05-01T02:34:44.952Z,11.40
2023-05-01T02:38:47.242Z,10.80
2023-05-01T02:42:51.600Z,10.60
2023-05-01T02:46:55.353Z,10.50
2023-05-01T02:50:58.231Z,10.50
2023-05-01T02:55:00.580Z,10.40
2023-05-01T02:59:02.278Z,10.70
2023-05-01T03:03:04.040Z,10.60
2023-05-01T03:07:05.883Z,10.50
2023-05-01T03:11:07.954Z,10.30
2023-05-01T03:15:11.252Z,10.20
2023-05-01T03:19:12.946Z,10.30
2023-05-01T03:23:14.703Z,10.40
2023-05-01T03:27:16.349Z,10.40
2023-05-01T03:31:18.023Z,10.40
2023-05-01T03:35:19.732Z,10.30
2023-05-01T03:39:21.412Z,10.40
2023-05-01T03:43:23.868Z,10.30
2023-05-01T03:47:25.441Z,10.20
2023-05-01T03:51:27.306Z,10.30
2023-05-01T03:55:39.628Z,10.40
2023-05-01T03:59:43.745Z,10.30
2023-05-01T04:03:46.367Z,10.40
2023-05-01T04:07:48.256Z,10.30
2023-05-01T04:11:49.944Z,10.40
2023-05-01T04:15:51.711Z,10.40
2023-05-01T04:19:57.213Z,10.30
2023-05-01T04:23:59.125Z,10.40
2023-05-01T04:28:01.550Z,10.40
2023-05-01T04:32:03.408Z,10.40
2023-05-01T04:36:05.287Z,10.30
2023-05-01T04:40:09.771Z,10.30
2023-05-01T04:44:12.905Z,10.40
2023-05-01T04:48:14.625Z,10.60
2023-05-01T04:52:16.384Z,10.70
2023-05-01T04:56:18.064Z,10.50
2023-05-01T05:00:20.560Z,10.50
2023-05-01T05:04:22.463Z,10.70
2023-05-01T05:08:24.148Z,10.80
2023-05-01T05:12:26.026Z,10.90
2023-05-01T05:16:27.837Z,10.70
2023-05-01T05:20:29.718Z,10.90
2023-05-01T05:24:32.439Z,11.00
2023-05-01T05:28:34.032Z,11.20
2023-05-01T05:32:35.705Z,11.10
2023-05-01T05:36:37.707Z,11.20
2023-05-01T05:40:39.365Z,11.20
2023-05-01T05:44:41.196Z,11.40
2023-05-01T05:48:42.817Z,11.40
2023-05-01T05:52:44.433Z,11.40
2023-05-01T05:56:46.190Z,11.60
2023-05-01T06:00:48.512Z,11.70
2023-05-01T06:04:50.123Z,11.70
2023-05-01T06:08:51.905Z,11.90
2023-05-01T06:12:58.759Z,12.00
2023-05-01T06:17:11.271Z,12.10
2023-05-01T06:21:13.261Z,12.20
2023-05-01T06:25:15.099Z,12.30
2023-05-01T06:29:17.077Z,12.40
2023-05-01T06:33:18.830Z,12.50
2023-05-01T06:37:20.977Z,12.60
2023-05-01T06:41:23.436Z,12.80
2023-05-01T06:45:25.782Z,13.00
2023-05-01T06:49:27.702Z,13.10
2023-05-01T06:53:29.437Z,13.30
2023-05-01T06:57:31.052Z,13.40
2023-05-01T07:01:34.748Z,13.50
2023-05-01T07:05:37.181Z,13.50
2023-05-01T07:09:38.864Z,13.60
2023-05-01T07:13:40.764Z,13.70
2023-05-01T07:17:43.074Z,13.80
2023-05-01T07:21:44.910Z,13.80
2023-05-01T07:25:47.102Z,14.00
2023-05-01T07:29:50.465Z,14.10
2023-05-01T07:33:54.252Z,14.10
2023-05-01T07:37:56.111Z,14.20
2023-05-01T07:41:58.544Z,14.30
2023-05-01T07:46:01.616Z,14.40
2023-05-01T07:50:04.392Z,14.60
2023-05-01T07:54:06.077Z,14.60
2023-05-01T07:58:07.833Z,14.80
2023-05-01T08:02:09.581Z,14.90
2023-05-01T08:06:11.316Z,15.10
2023-05-01T08:10:13.019Z,15.10
2023-05-01T08:14:17.520Z,15.20
2023-05-01T08:18:22.149Z,15.30
2023-05-01T08:22:24.051Z,15.30
2023-05-01T08:26:25.950Z,15.40
2023-05-01T08:30:29.134Z,15.40
2023-05-01T08:34:31.196Z,15.40
2023-05-01T08:38:32.811Z,15.40
2023-05-01T08:42:37.426Z,15.70
2023-05-01T08:46:47.937Z,15.70
2023-05-01T08:50:50.669Z,15.70
2023-05-01T08:54:56.792Z,15.70
2023-05-01T08:59:01.093Z,15.80
2023-05-01T09:03:05.059Z,15.90
2023-05-01T09:07:07.847Z,15.90
2023-05-01T09:11:11.483Z,16.10
2023-05-01T09:15:13.663Z,16.20
2023-05-01T09:19:15.633Z,16.40
2023-05-01T09:23:17.568Z,16.50
2023-05-01T09:27:19.283Z,16.70
2023-05-01T09:31:22.757Z,16.80
2023-05-01T09:35:24.471Z,16.90
2023-05-01T09:39:26.537Z,17.00
2023-05-01T09:43:30.286Z,16.90
2023-05-01T09:47:34.064Z,17.00
2023-05-01T09:51:36.756Z,17.10
2023-05-01T09:55:38.463Z,17.40
2023-05-01T09:59:40.183Z,17.40
2023-05-01T10:03:44.066Z,17.40
2023-05-01T10:08:03.481Z,17.00
2023-05-01T10:12:05.935Z,16.90
2023-05-01T10:16:08.561Z,16.60
2023-05-01T10:20:13.655Z,16.70
2023-05-01T10:24:17.649Z,16.40
2023-05-01T10:28:21.045Z,16.10
2023-05-01T10:32:23.036Z,16.10
2023-05-01T10:36:30.540Z,16.10
2023-05-01T10:40:44.425Z,16.10
2023-05-01T10:44:47.984Z,16.20
2023-05-01T10:48:49.703Z,16.00
2023-05-01T10:53:11.561Z,16.00
2023-05-01T10:57:42.404Z,16.00
2023-05-01T11:01:45.804Z,15.80
2023-05-01T11:06:05.453Z,15.90
2023-05-01T11:10:25.848Z,16.20
2023-05-01T11:14:27.580Z,16.30
2023-05-01T11:18:45.988Z,16.10
2023-05-01T11:22:51.354Z,16.10
2023-05-01T11:26:53.374Z,16.30
2023-05-01T11:30:55.659Z,16.30
2023-05-01T11:34:57.854Z,16.20
2023-05-01T11:38:59.998Z,16.10
2023-05-01T11:43:03.702Z,16.20
2023-05-01T11:47:07.300Z,16.10
2023-05-01T11:51:13.183Z,16.40
2023-05-01T11:55:16.246Z,16.60
2023-05-01T11:59:17.957Z,16.60
2023-05-01T12:03:20.747Z,16.70
2023-05-01T12:07:23.609Z,16.60
2023-05-01T12:11:25.816Z,16.70
2023-05-01T12:15:27.592Z,16.60
2023-05-01T12:19:29.309Z,16.40
2023-05-01T12:23:37.320Z,16.30
2023-05-01T12:27:45.984Z,16.20
2023-05-01T12:31:49.638Z,16.00
2023-05-01T12:35:51.765Z,16.10
2023-05-01T12:39:53.456Z,15.90
2023-05-01T12:43:55.153Z,15.50
2023-05-01T12:47:57.280Z,15.60
2023-05-01T12:52:03.717Z,15.50
2023-05-01T12:56:06.603Z,15.60
2023-05-01T13:00:09.539Z,16.00
2023-05-01T13:04:11.427Z,16.10
2023-05-01T13:08:13.785Z,16.50
2023-05-01T13:12:15.520Z,16.30
2023-05-01T13:16:17.591Z,16.50
2023-05-01T13:20:26.905Z,16.50
2023-05-01T13:24:42.875Z,16.30
2023-05-01T13:28:45.497Z,16.40
2023-05-01T13:32:47.915Z,16.10
2023-05-01T13:36:49.642Z,15.50
2023-05-01T13:40:51.407Z,15.20
2023-05-01T13:44:55.410Z,14.70
2023-05-01T13:48:58.821Z,14.20
2023-05-01T13:53:01.250Z,13.80
2023-05-01T13:57:02.992Z,13.70
2023-05-01T14:01:32.671Z,13.20
2023-05-01T14:05:36.563Z,12.80
2023-05-01T14:09:41.763Z,12.60
2023-05-01T14:13:46.222Z,12.80
2023-05-01T14:17:50.435Z,13.00
2023-05-01T14:21:52.242Z,12.70
2023-05-01T14:25:53.979Z,13.20
2023-05-01T14:29:55.975Z,13.00
2023-05-01T14:34:03.787Z,13.20
2023-05-01T14:38:11.486Z,13.20
2023-05-01T14:42:13.310Z,13.30
2023-05-01T14:46:16.073Z,13.10
2023-05-01T14:50:24.799Z,13.30
2023-05-01T14:54:26.538Z,12.80
2023-05-01T14:58:28.288Z,12.50
2023-05-01T15:02:30.816Z,12.30
2023-05-01T15:06:33.013Z,12.20
2023-05-01T15:10:34.781Z,12.20
2023-05-01T15:14:36.511Z,12.20
2023-05-01T15:18:39.061Z,12.30
2023-05-01T15:22:41.185Z,11.90
2023-05-01T15:26:43.027Z,11.80
2023-05-01T15:30:46.351Z,11.80
2023-05-01T15:34:49.999Z,11.70
2023-05-01T15:38:51.671Z,11.70
2023-05-01T15:42:53.539Z,11.80
2023-05-01T15:46:55.492Z,11.90
2023-05-01T15:50:57.254Z,12.20
2023-05-01T15:54:58.995Z,12.00
2023-05-01T15:59:05.150Z,12.10
2023-05-01T16:03:08.506Z,12.20
2023-05-01T16:07:10.623Z,12.10
2023-05-01T16:11:15.160Z,12.10
2023-05-01T16:15:17.216Z,12.00
2023-05-01T16:19:19.859Z,12.10
2023-05-01T16:23:22.210Z,12.20
2023-05-01T16:27:23.866Z,12.20
2023-05-01T16:31:27.434Z,12.20
2023-05-01T16:35:29.702Z,12.00
2023-05-01T16:39:35.477Z,11.90
2023-05-01T16:43:37.166Z,12.00
2023-05-01T16:47:38.986Z,12.00
2023-05-01T16:51:42.406Z,11.90
2023-05-01T16:55:44.432Z,11.90
2023-05-01T16:59:46.112Z,11.90
2023-05-01T17:03:47.830Z,11.80
2023-05-01T17:07:49.567Z,11.80
2023-05-01T17:11:51.327Z,11.80
2023-05-01T17:15:53.017Z,11.80
2023-05-01T17:19:54.753Z,11.80
2023-05-01T17:23:56.578Z,11.80
2023-05-01T17:27:59.012Z,11.70
2023-05-01T17:32:01.035Z,11.80
2023-05-01T17:36:02.892Z,11.80
2023-05-01T17:40:05.270Z,11.70
2023-05-01T17:44:06.994Z,11.90
2023-05-01T17:48:09.228Z,12.00
2023-05-01T17:52:10.992Z,12.00
2023-05-01T17:56:12.698Z,11.60
2023-05-01T18:00:14.630Z,11.60
2023-05-01T18:04:16.381Z,11.50
2023-05-01T18:08:18.118Z,11.60
2023-05-01T18:12:19.876Z,11.60
2023-05-01T18:16:23.191Z,11.70
2023-05-01T18:20:25.433Z,11.60
2023-05-01T18:24:27.188Z,11.60
2023-05-01T18:28:28.906Z,11.60
2023-05-01T18:32:46.271Z,11.70
2023-05-01T18:36:52.212Z,11.60
2023-05-01T18:40:53.986Z,11.50
2023-05-01T18:44:56.919Z,11.50
2023-05-01T18:48:59.716Z,11.40
2023-05-01T18:53:01.322Z,11.50
2023-05-01T18:57:02.977Z,11.60
2023-05-01T19:01:04.720Z,11.60
2023-05-01T19:05:08.589Z,11.50
2023-05-01T19:09:11.019Z,11.60
2023-05-01T19:13:12.736Z,11.50
2023-05-01T19:17:14.487Z,11.50
2023-05-01T19:21:16.271Z,11.60
2023-05-01T19:25:19.366Z,11.60
2023-05-01T19:29:21.056Z,11.40
2023-05-01T19:33:22.714Z,11.40
2023-05-01T19:37:26.576Z,11.50
2023-05-01T19:41:28.252Z,11.50
2023-05-01T19:45:29.921Z,11.50
2023-05-01T19:49:31.571Z,11.60
2023-05-01T19:53:33.330Z,11.60
2023-05-01T19:57:34.936Z,11.60
2023-05-01T20:01:38.651Z,11.60
2023-05-01T20:05:40.650Z,11.60
2023-05-01T20:09:42.566Z,11.60
2023-05-01T20:13:45.372Z,11.60
2023-05-01T20:17:50.404Z,11.60
2023-05-01T20:21:52.192Z,11.50
2023-05-01T20:25:53.930Z,11.30
2023-05-01T20:29:55.613Z,11.20
2023-05-01T20:33:57.300Z,11.10
2023-05-01T20:37:59.477Z,11.10
2023-05-01T20:42:01.368Z,11.10
2023-05-01T20:46:03.041Z,11.00
2023-05-01T20:50:05.019Z,10.90
2023-05-01T20:54:07.566Z,11.00
2023-05-01T20:58:09.268Z,10.90
2023-05-01T21:02:11.119Z,10.90
2023-05-01T21:06:14.308Z,10.90
2023-05-01T21:10:16.550Z,10.90
2023-05-01T21:14:18.253Z,10.90
2023-05-01T21:18:20.427Z,10.90
2023-05-01T21:22:22.790Z,10.90
2023-05-01T21:26:24.627Z,11.00
2023-05-01T21:30:33.221Z,10.90
2023-05-01T21:34:35.682Z,10.90
2023-05-01T21:38:37.364Z,10.90
2023-05-01T21:42:40.204Z,10.90
2023-05-01T21:46:42.536Z,10.90
2023-05-01T21:50:48.821Z,10.80
2023-05-01T21:54:50.651Z,10.80
2023-05-01T21:58:52.488Z,10.80
2023-05-01T22:02:54.307Z,10.70
2023-05-01T22:06:56.049Z,10.80
2023-05-01T22:10:58.136Z,10.80
2023-05-01T22:14:59.783Z,10.80
2023-05-01T22:19:01.449Z,10.80
2023-05-01T22:23:03.068Z,10.70
2023-05-01T22:27:04.852Z,10.80
2023-05-01T22:31:06.457Z,10.80
2023-05-01T22:35:08.768Z,10.80
2023-05-01T22:39:10.604Z,10.70
2023-05-01T22:43:12.259Z,10.70
2023-05-01T22:47:13.948Z,10.70
2023-05-01T22:51:15.750Z,10.80
2023-05-01T22:55:17.588Z,10.90
2023-05-01T22:59:19.894Z,10.80
2023-05-01T23:03:22.001Z,10.80
2023-05-01T23:07:23.823Z,10.80
2023-05-01T23:11:30.878Z,10.80
2023-05-01T23:15:32.686Z,10.90
2023-05-01T23:19:34.274Z,10.80
2023-05-01T23:23:37.333Z,10.80
2023-05-01T23:27:41.844Z,10.80
2023-05-01T23:31:47.931Z,10.90
2023-05-01T23:35:49.770Z,10.90
2023-05-01T23:39:53.548Z,10.90
2023-05-01T23:43:55.794Z,10.90
2023-05-01T23:47:58.545Z,10.90
2023-05-01T23:52:00.321Z,10.80
2023-05-01T23:56:02.157Z,10.80
